Time;durP1;ratioP1;P1;durP2;ratioP2;P2;SDS_P1;SDS_P2;PMS_P1;PMS_P2;Temp;Humidity;BMP_temperature;BMP_pressure;BME280_temperature;BME280_humidity;BME280_pressure;Samples;Min_cycle;Max_cycle;Signal;HPM_P1;HPM_P2
2022/10/17 00:02:25;;;;;;;6.63;1.23;;;10.60;99.90;;;;;;6120134;29;20543;-67
2022/10/17 00:05:30;;;;;;;4.13;1.33;;;10.60;99.90;;;;;;6115291;29;20471;-67
2022/10/17 00:08:36;;;;;;;5.00;1.33;;;10.60;99.90;;;;;;6095684;29;20296;-67
2022/10/17 00:11:42;;;;;;;2.17;1.30;;;10.50;99.90;;;;;;6105335;29;20268;-68
2022/10/17 00:14:47;;;;;;;2.65;1.15;;;10.50;99.90;;;;;;6112221;29;20308;-67
2022/10/17 00:17:52;;;;;;;4.00;1.05;;;10.60;99.90;;;;;;6120090;29;20271;-67
2022/10/17 00:20:57;;;;;;;4.82;1.27;;;10.60;99.90;;;;;;6119186;29;20296;-67
2022/10/17 00:24:02;;;;;;;1.55;1.10;;;10.60;99.90;;;;;;6119288;29;20300;-68
2022/10/17 00:27:08;;;;;;;6.43;1.30;;;10.70;99.90;;;;;;6119308;29;20458;-68
2022/10/17 00:30:15;;;;;;;7.22;1.42;;;10.80;99.90;;;;;;6119360;29;20300;-68
2022/10/17 00:33:21;;;;;;;2.10;1.20;;;10.80;99.90;;;;;;6102610;29;20275;-68
2022/10/17 00:36:26;;;;;;;6.63;1.33;;;10.80;99.90;;;;;;6119298;29;20567;-67
2022/10/17 00:39:31;;;;;;;1.13;1.10;;;10.80;99.90;;;;;;6118790;29;20304;-67
2022/10/17 00:42:37;;;;;;;4.30;1.33;;;10.80;99.90;;;;;;6101967;29;20268;-67
2022/10/17 00:45:42;;;;;;;1.83;1.70;;;10.90;99.90;;;;;;6118495;29;20312;-67
2022/10/17 00:48:51;;;;;;;3.22;1.30;;;10.90;99.90;;;;;;6118850;29;20462;-67
2022/10/17 00:51:59;;;;;;;5.07;1.40;;;10.90;99.90;;;;;;6119025;29;20272;-67
2022/10/17 00:55:09;;;;;;;3.95;1.27;;;10.90;99.90;;;;;;6101700;29;20308;-67
2022/10/17 00:58:16;;;;;;;4.50;1.38;;;10.90;99.90;;;;;;6118214;29;20280;-67
2022/10/17 01:01:21;;;;;;;5.97;1.63;;;11.00;99.90;;;;;;6118912;29;20596;-67
2022/10/17 01:04:26;;;;;;;4.72;1.40;;;11.00;99.90;;;;;;6118380;29;20295;-67
2022/10/17 01:07:31;;;;;;;6.43;1.30;;;11.00;99.90;;;;;;6138244;29;20302;-67
2022/10/17 01:10:54;;;;;;;5.47;1.30;;;11.10;99.90;;;;;;6139989;29;20303;-66
2022/10/17 01:14:08;;;;;;;4.47;1.70;;;11.10;99.90;;;;;;6117804;29;20292;-67
2022/10/17 01:17:20;;;;;;;1.25;1.17;;;11.10;99.90;;;;;;6117976;29;20276;-66
2022/10/17 01:21:09;;;;;;;7.20;1.20;;;11.20;99.90;;;;;;6117525;29;20295;-66
2022/10/17 01:24:47;;;;;;;1.65;1.17;;;11.20;99.90;;;;;;6116296;29;20307;-66
2022/10/17 01:28:03;;;;;;;4.10;1.40;;;11.20;99.90;;;;;;6118066;29;20279;-66
2022/10/17 01:31:13;;;;;;;3.70;1.30;;;11.20;99.90;;;;;;6100972;29;20272;-66
2022/10/17 01:34:22;;;;;;;4.57;1.50;;;11.20;99.90;;;;;;6100684;29;20303;-66
2022/10/17 01:37:32;;;;;;;7.22;1.92;;;11.20;99.90;;;;;;6117110;29;20276;-66
2022/10/17 01:40:40;;;;;;;7.03;1.40;;;11.10;99.90;;;;;;6100603;29;20308;-67
2022/10/17 01:43:52;;;;;;;4.03;1.52;;;11.30;99.90;;;;;;6100147;29;20300;-67
2022/10/17 01:47:03;;;;;;;4.72;1.40;;;11.30;99.90;;;;;;6100756;29;20276;-66
2022/10/17 01:50:15;;;;;;;7.70;1.35;;;11.40;99.90;;;;;;6100811;29;20304;-67
2022/10/17 01:53:25;;;;;;;6.88;1.40;;;11.30;99.90;;;;;;6117312;29;20280;-67
2022/10/17 01:56:32;;;;;;;8.10;1.50;;;11.30;99.90;;;;;;6117439;29;20272;-68
2022/10/17 01:59:42;;;;;;;9.05;1.65;;;11.30;99.90;;;;;;6100837;29;20300;-67
2022/10/17 02:02:52;;;;;;;4.82;1.60;;;11.40;99.90;;;;;;6115890;29;20439;-67
2022/10/17 02:05:59;;;;;;;8.48;1.60;;;11.40;99.90;;;;;;6100003;29;20315;-66
2022/10/17 02:09:18;;;;;;;5.60;1.88;;;11.40;99.90;;;;;;6115600;29;20629;-68
2022/10/17 02:12:37;;;;;;;6.63;1.50;;;11.30;99.90;;;;;;6131739;29;20267;-68
2022/10/17 02:15:59;;;;;;;7.57;1.40;;;11.40;99.90;;;;;;6123558;29;20307;-68
2022/10/17 02:19:30;;;;;;;3.83;1.38;;;11.40;99.90;;;;;;6118432;29;20590;-67
2022/10/17 02:22:42;;;;;;;3.15;1.52;;;11.40;99.90;;;;;;6123701;29;20572;-68
2022/10/17 02:25:51;;;;;;;4.57;1.67;;;11.40;99.90;;;;;;6139945;29;20304;-67
2022/10/17 02:29:06;;;;;;;7.97;1.65;;;11.40;99.90;;;;;;6139112;29;20299;-68
2022/10/17 02:32:24;;;;;;;2.03;1.40;;;11.40;99.90;;;;;;6140665;29;20271;-68
2022/10/17 02:35:34;;;;;;;6.75;1.75;;;11.50;99.90;;;;;;6138646;29;20299;-67
2022/10/17 02:38:40;;;;;;;6.97;1.58;;;11.40;99.90;;;;;;6122834;29;20291;-67
2022/10/17 02:41:45;;;;;;;6.63;1.35;;;11.40;99.90;;;;;;6123818;29;20275;-67
2022/10/17 02:44:51;;;;;;;3.78;1.38;;;11.40;99.90;;;;;;6139890;29;20311;-67
2022/10/17 02:48:01;;;;;;;6.30;1.80;;;11.30;99.90;;;;;;6125314;29;20270;-67
2022/10/17 02:51:12;;;;;;;4.75;1.70;;;11.30;99.90;;;;;;6127258;29;20294;-66
2022/10/17 02:54:21;;;;;;;7.38;2.38;;;11.40;99.90;;;;;;6143228;29;20295;-66
2022/10/17 02:57:30;;;;;;;3.70;1.20;;;11.30;99.90;;;;;;6128498;29;20602;-66
2022/10/17 03:00:36;;;;;;;4.70;1.63;;;11.30;99.90;;;;;;6139175;29;20303;-66
2022/10/17 03:03:41;;;;;;;9.82;2.00;;;11.20;99.90;;;;;;6127569;29;20299;-66
2022/10/17 03:06:48;;;;;;;5.95;1.65;;;11.20;99.90;;;;;;6110342;29;20291;-67
2022/10/17 03:09:55;;;;;;;10.48;1.58;;;11.20;99.90;;;;;;6101494;29;20370;-66
2022/10/17 03:13:00;;;;;;;2.40;1.15;;;11.20;99.90;;;;;;6080709;29;20319;-66
2022/10/17 03:16:06;;;;;;;11.02;1.45;;;11.20;99.90;;;;;;6080876;29;20352;-66
2022/10/17 03:19:11;;;;;;;6.85;1.98;;;11.20;99.90;;;;;;6103595;29;20608;-67
2022/10/17 03:22:18;;;;;;;9.85;1.60;;;11.20;99.90;;;;;;6121100;29;20449;-66
2022/10/17 03:25:24;;;;;;;5.43;1.85;;;11.10;99.90;;;;;;6119965;29;20295;-67
2022/10/17 03:28:29;;;;;;;11.95;1.70;;;11.10;99.90;;;;;;6103703;29;20300;-66
2022/10/17 03:31:34;;;;;;;4.68;1.60;;;11.20;99.90;;;;;;6103900;29;20570;-67
2022/10/17 03:34:40;;;;;;;5.60;1.30;;;11.10;99.90;;;;;;6103768;29;20300;-67
2022/10/17 03:37:47;;;;;;;8.30;1.55;;;11.10;99.90;;;;;;6095483;29;20296;-67
2022/10/17 03:40:56;;;;;;;5.40;1.55;;;11.10;99.90;;;;;;6096159;29;20268;-67
2022/10/17 03:44:01;;;;;;;7.95;1.63;;;11.10;99.90;;;;;;6095420;29;20600;-67
2022/10/17 03:47:06;;;;;;;2.20;1.25;;;11.00;99.90;;;;;;6095884;29;20296;-67
2022/10/17 03:50:17;;;;;;;9.40;1.63;;;11.00;99.90;;;;;;6095454;29;20296;-67
2022/10/17 03:53:24;;;;;;;4.50;1.50;;;11.00;99.90;;;;;;6095350;29;20297;-67
2022/10/17 03:56:30;;;;;;;4.05;1.23;;;11.00;99.90;;;;;;6095918;29;20284;-66
2022/10/17 03:59:44;;;;;;;6.82;2.08;;;11.00;99.90;;;;;;6087658;29;20303;-66
2022/10/17 04:02:53;;;;;;;5.72;1.70;;;10.90;99.90;;;;;;6102656;29;20478;-67
2022/10/17 04:05:59;;;;;;;7.28;1.70;;;10.90;99.90;;;;;;6119498;29;20307;-67
2022/10/17 04:09:08;;;;;;;6.68;1.52;;;10.90;99.90;;;;;;6119643;29;20611;-67
2022/10/17 04:12:23;;;;;;;3.85;1.40;;;10.90;99.90;;;;;;6079177;29;20556;-67
2022/10/17 04:15:29;;;;;;;7.07;1.50;;;10.90;99.90;;;;;;6079946;29;20276;-67
2022/10/17 04:18:34;;;;;;;6.38;1.52;;;10.90;99.90;;;;;;6095855;29;20616;-67
2022/10/17 04:21:40;;;;;;;4.93;1.58;;;10.90;99.90;;;;;;6096325;29;20268;-67
2022/10/17 04:24:46;;;;;;;7.72;1.65;;;10.90;99.90;;;;;;6079171;29;20300;-66
2022/10/17 04:28:33;;;;;;;2.55;1.33;;;10.90;99.90;;;;;;6095626;29;20324;-66
2022/10/17 04:31:38;;;;;;;5.80;1.70;;;10.90;99.90;;;;;;6094561;29;20272;-66
2022/10/17 04:35:00;;;;;;;11.70;1.73;;;10.90;99.90;;;;;;6094530;29;20491;-67
2022/10/17 04:38:05;;;;;;;1.27;1.15;;;10.90;99.90;;;;;;6079059;29;20296;-67
2022/10/17 04:41:16;;;;;;;4.30;1.60;;;10.80;99.90;;;;;;6079584;29;20273;-67
2022/10/17 04:44:20;;;;;;;5.90;1.50;;;10.80;99.90;;;;;;6078744;29;20292;-67
2022/10/17 04:47:29;;;;;;;4.72;1.38;;;10.80;99.90;;;;;;6078596;29;20293;-67
2022/10/17 04:50:34;;;;;;;7.07;1.80;;;10.80;99.90;;;;;;6079345;29;20277;-68
2022/10/17 04:54:00;;;;;;;5.10;1.40;;;10.80;99.90;;;;;;6078374;29;20296;-66
2022/10/17 04:57:08;;;;;;;4.07;1.75;;;10.80;99.90;;;;;;6094577;29;20276;-67
2022/10/17 05:00:17;;;;;;;6.85;1.65;;;10.80;99.90;;;;;;6093961;29;20651;-66
2022/10/17 05:03:48;;;;;;;7.82;1.80;;;10.80;99.90;;;;;;6092627;29;20312;-67
2022/10/17 05:06:53;;;;;;;5.72;1.80;;;10.70;99.90;;;;;;6078197;29;20312;-67
2022/10/17 05:10:15;;;;;;;4.00;1.75;;;10.80;99.90;;;;;;6099806;29;20300;-67
2022/10/17 05:13:24;;;;;;;7.00;2.05;;;10.80;99.90;;;;;;6101341;29;20343;-67
2022/10/17 05:16:30;;;;;;;2.92;1.45;;;10.90;99.90;;;;;;6101903;29;20275;-67
2022/10/17 05:19:36;;;;;;;2.95;1.27;;;10.80;99.90;;;;;;6101046;29;20640;-67
2022/10/17 05:22:42;;;;;;;4.60;1.67;;;10.90;99.90;;;;;;6101055;29;20466;-67
2022/10/17 05:25:48;;;;;;;9.20;1.50;;;10.80;99.90;;;;;;6101635;29;20267;-67
2022/10/17 05:28:54;;;;;;;6.22;1.60;;;10.90;99.90;;;;;;6100717;29;20296;-68
2022/10/17 05:32:02;;;;;;;10.07;1.85;;;10.80;99.90;;;;;;6101630;29;20267;-67
2022/10/17 05:35:08;;;;;;;6.50;1.70;;;10.80;99.90;;;;;;6117312;29;20494;-65
2022/10/17 05:38:15;;;;;;;4.43;1.60;;;10.80;99.90;;;;;;6117512;29;20304;-66
2022/10/17 05:41:21;;;;;;;4.00;1.40;;;10.80;99.90;;;;;;6101060;29;20275;-67
2022/10/17 05:44:28;;;;;;;4.85;1.50;;;10.70;99.90;;;;;;6100718;29;20300;-67
2022/10/17 05:47:36;;;;;;;3.97;1.63;;;10.80;99.90;;;;;;6100026;29;20292;-67
2022/10/17 05:50:41;;;;;;;6.13;1.70;;;10.80;99.90;;;;;;6101102;29;20556;-67
2022/10/17 05:53:51;;;;;;;7.28;1.90;;;10.70;99.90;;;;;;6100057;29;20299;-68
2022/10/17 05:57:01;;;;;;;9.73;1.92;;;10.70;99.90;;;;;;6100380;29;20276;-67
2022/10/17 06:00:12;;;;;;;7.53;1.73;;;10.80;99.90;;;;;;6084804;29;20243;-67
2022/10/17 06:03:18;;;;;;;3.55;1.60;;;10.70;99.90;;;;;;6116885;29;20299;-67
2022/10/17 06:06:23;;;;;;;8.88;1.60;;;10.80;99.90;;;;;;6100391;29;20581;-67
2022/10/17 06:09:29;;;;;;;9.00;1.80;;;10.80;99.90;;;;;;6100032;29;20587;-67
2022/10/17 06:12:34;;;;;;;5.43;1.38;;;10.80;99.90;;;;;;6115562;29;20272;-67
2022/10/17 06:15:40;;;;;;;9.98;1.95;;;10.70;99.90;;;;;;6115860;29;20271;-67
2022/10/17 06:18:46;;;;;;;8.43;1.70;;;10.80;99.90;;;;;;6115333;29;20304;-67
2022/10/17 06:21:52;;;;;;;3.58;1.70;;;10.80;99.90;;;;;;6116824;29;20280;-67
2022/10/17 06:24:59;;;;;;;8.15;1.92;;;10.80;99.90;;;;;;6115187;29;20299;-66
2022/10/17 06:28:05;;;;;;;5.53;1.60;;;10.80;99.90;;;;;;6114872;29;20303;-67
2022/10/17 06:31:16;;;;;;;3.15;1.60;;;10.70;99.90;;;;;;6115516;29;20271;-66
2022/10/17 06:34:22;;;;;;;8.60;2.75;;;10.80;99.90;;;;;;6115453;29;20304;-67
2022/10/17 06:37:31;;;;;;;10.32;1.55;;;10.70;99.90;;;;;;6115011;29;20529;-67
2022/10/17 06:40:42;;;;;;;6.15;1.50;;;10.80;99.90;;;;;;6115973;29;20556;-67
2022/10/17 06:43:47;;;;;;;5.63;1.40;;;10.80;99.90;;;;;;6114907;29;20295;-67
2022/10/17 06:47:15;;;;;;;4.18;1.80;;;10.80;99.90;;;;;;6115444;29;20296;-67
2022/10/17 06:50:24;;;;;;;6.80;1.58;;;10.80;99.90;;;;;;6114744;29;20275;-66
2022/10/17 06:53:55;;;;;;;7.00;1.60;;;10.90;99.90;;;;;;6114807;29;20304;-67
2022/10/17 06:57:11;;;;;;;6.35;1.70;;;10.80;99.90;;;;;;6115786;29;20280;-67
2022/10/17 07:00:42;;;;;;;11.55;2.25;;;10.90;99.90;;;;;;6113480;29;20271;-67
2022/10/17 07:03:51;;;;;;;6.68;1.70;;;10.80;99.90;;;;;;6115006;29;20291;-67
2022/10/17 07:06:57;;;;;;;7.85;1.77;;;10.90;99.90;;;;;;6115440;29;20295;-67
2022/10/17 07:10:12;;;;;;;7.72;1.48;;;10.90;99.90;;;;;;6114519;29;20295;-67
2022/10/17 07:13:19;;;;;;;3.22;1.40;;;10.90;99.90;;;;;;6099047;29;20330;-67
2022/10/17 07:16:24;;;;;;;5.57;1.83;;;10.90;99.90;;;;;;6099894;29;20268;-67
2022/10/17 07:19:42;;;;;;;4.38;1.48;;;11.00;99.90;;;;;;6115475;29;20303;-67
2022/10/17 07:22:47;;;;;;;4.32;1.80;;;11.00;99.90;;;;;;6116232;29;20586;-67
2022/10/17 07:25:53;;;;;;;4.22;1.63;;;11.00;99.90;;;;;;6116897;29;20565;-67
2022/10/17 07:29:00;;;;;;;7.07;1.55;;;11.00;99.90;;;;;;6099105;29;20308;-67
2022/10/17 07:32:14;;;;;;;6.32;1.85;;;11.00;99.90;;;;;;6100378;29;20555;-67
2022/10/17 07:35:22;;;;;;;6.65;1.33;;;11.00;99.90;;;;;;6102594;29;20300;-67
2022/10/17 07:38:28;;;;;;;6.55;2.00;;;11.00;99.90;;;;;;6103400;29;20303;-67
2022/10/17 07:41:34;;;;;;;3.95;1.63;;;11.00;99.90;;;;;;6103708;29;20276;-67
2022/10/17 07:44:38;;;;;;;4.03;1.52;;;11.10;99.90;;;;;;6103207;29;20323;-68
2022/10/17 07:47:44;;;;;;;7.03;1.42;;;11.10;99.90;;;;;;6103312;29;20240;-67
2022/10/17 07:50:53;;;;;;;4.43;1.67;;;11.10;99.90;;;;;;6103901;29;20272;-67
2022/10/17 07:53:58;;;;;;;4.95;1.52;;;11.10;99.90;;;;;;6119940;29;20364;-67
2022/10/17 07:57:03;;;;;;;8.50;1.80;;;11.20;99.90;;;;;;6120408;29;20278;-67
2022/10/17 08:00:09;;;;;;;4.53;1.48;;;11.20;99.90;;;;;;6119829;29;20624;-68
2022/10/17 08:03:18;;;;;;;6.43;1.92;;;11.20;99.90;;;;;;6119598;29;20303;-67
2022/10/17 08:06:24;;;;;;;4.18;1.75;;;11.20;99.90;;;;;;6119905;29;20304;-67
2022/10/17 08:09:30;;;;;;;4.63;1.90;;;11.20;99.90;;;;;;6119282;29;20329;-67
2022/10/17 08:12:34;;;;;;;6.72;1.58;;;11.10;99.90;;;;;;6119262;29;20457;-67
2022/10/17 08:15:39;;;;;;;5.85;1.75;;;11.20;99.90;;;;;;6119987;29;20276;-68
2022/10/17 08:18:44;;;;;;;5.05;1.92;;;11.30;99.90;;;;;;6119162;29;20299;-67
2022/10/17 08:21:53;;;;;;;5.78;1.70;;;11.30;99.90;;;;;;6120015;29;20267;-68
2022/10/17 08:24:57;;;;;;;5.68;1.63;;;11.30;99.90;;;;;;6119300;29;20299;-68
2022/10/17 08:28:03;;;;;;;9.05;1.73;;;11.20;99.90;;;;;;6119060;29;20303;-68
2022/10/17 08:31:10;;;;;;;5.85;1.80;;;11.30;99.90;;;;;;6119601;29;20551;-68
2022/10/17 08:34:15;;;;;;;5.88;1.65;;;11.30;99.90;;;;;;6118942;29;20301;-67
2022/10/17 08:37:22;;;;;;;4.82;1.80;;;11.30;99.90;;;;;;6119706;29;20280;-67
2022/10/17 08:40:32;;;;;;;5.18;1.50;;;11.40;99.90;;;;;;6118603;29;20283;-67
2022/10/17 08:44:03;;;;;;;4.53;1.63;;;11.40;99.90;;;;;;6110782;29;20300;-67
2022/10/17 08:47:13;;;;;;;8.70;2.20;;;11.40;99.90;;;;;;6095006;29;20277;-67
2022/10/17 08:50:31;;;;;;;8.23;1.67;;;11.40;99.90;;;;;;6094759;29;20308;-67
2022/10/17 08:53:43;;;;;;;5.50;1.65;;;11.40;99.90;;;;;;6094844;29;20613;-67
2022/10/17 08:56:50;;;;;;;6.20;1.75;;;11.40;99.90;;;;;;6095336;29;20272;-67
2022/10/17 08:59:56;;;;;;;5.50;1.65;;;11.50;99.90;;;;;;6094944;29;20304;-67
2022/10/17 09:03:16;;;;;;;4.70;1.45;;;11.50;99.90;;;;;;6094874;29;20296;-68
2022/10/17 09:06:28;;;;;;;7.65;1.75;;;11.50;99.90;;;;;;6095321;29;20301;-68
2022/10/17 09:09:54;;;;;;;6.18;1.63;;;11.50;99.90;;;;;;6095619;29;20300;-68
2022/10/17 09:13:10;;;;;;;6.80;1.73;;;11.50;99.90;;;;;;6118266;29;20398;-68
2022/10/17 09:16:43;;;;;;;2.38;1.80;;;11.60;99.90;;;;;;6118480;29;20280;-68
2022/10/17 09:20:00;;;;;;;4.72;1.63;;;11.60;99.90;;;;;;6118001;29;20307;-68
2022/10/17 09:23:13;;;;;;;4.00;1.40;;;11.60;99.90;;;;;;6117704;29;20296;-68
2022/10/17 09:26:20;;;;;;;5.30;1.40;;;11.70;99.90;;;;;;6118069;29;20276;-68
2022/10/17 09:29:27;;;;;;;3.90;1.30;;;11.70;99.90;;;;;;6117902;29;20335;-68
2022/10/17 09:32:41;;;;;;;6.10;1.92;;;11.80;99.90;;;;;;6117420;29;20268;-68
2022/10/17 09:35:47;;;;;;;5.97;1.60;;;11.80;99.90;;;;;;6117935;29;20275;-68
2022/10/17 09:38:54;;;;;;;3.00;1.33;;;11.80;99.90;;;;;;6117580;29;20304;-67
2022/10/17 09:42:02;;;;;;;4.28;1.50;;;11.80;99.90;;;;;;6117839;29;20268;-68
2022/10/17 09:45:18;;;;;;;10.73;1.85;;;11.90;99.90;;;;;;6117103;29;20611;-67
2022/10/17 09:48:27;;;;;;;7.55;1.50;;;11.90;99.90;;;;;;6117212;29;20302;-67
2022/10/17 09:51:32;;;;;;;13.30;1.30;;;12.00;99.90;;;;;;6117845;29;20568;-66
2022/10/17 09:54:44;;;;;;;5.03;1.40;;;12.00;99.90;;;;;;6117091;29;20611;-67
2022/10/17 09:57:56;;;;;;;1.42;1.27;;;12.10;99.90;;;;;;6116831;29;20295;-67
2022/10/17 10:01:20;;;;;;;7.57;1.58;;;12.10;99.90;;;;;;6117627;29;20280;-67
2022/10/17 10:04:28;;;;;;;9.20;1.95;;;12.10;99.90;;;;;;6116992;29;20291;-67
2022/10/17 10:07:39;;;;;;;6.10;1.65;;;12.20;99.90;;;;;;6116567;29;20532;-67
2022/10/17 10:10:44;;;;;;;6.20;2.00;;;12.20;99.90;;;;;;6117601;29;20288;-67
2022/10/17 10:13:50;;;;;;;5.60;1.45;;;12.30;99.90;;;;;;6117240;29;20296;-67
2022/10/17 10:16:56;;;;;;;5.07;1.63;;;12.20;99.90;;;;;;6117102;29;20268;-67
2022/10/17 10:20:01;;;;;;;6.80;1.30;;;12.20;99.90;;;;;;6116956;29;20299;-67
2022/10/17 10:23:13;;;;;;;1.40;1.30;;;12.40;99.90;;;;;;6115571;29;20299;-67
2022/10/17 10:26:24;;;;;;;2.53;1.30;;;12.40;99.90;;;;;;6117408;29;20272;-66
2022/10/17 10:29:33;;;;;;;4.35;1.33;;;12.50;99.90;;;;;;6116648;29;20303;-66
2022/10/17 10:32:38;;;;;;;2.80;1.30;;;12.50;99.90;;;;;;6116593;29;20576;-67
2022/10/17 10:35:44;;;;;;;3.95;1.55;;;12.50;99.90;;;;;;6117224;29;20272;-67
2022/10/17 10:38:53;;;;;;;6.68;1.58;;;12.60;99.90;;;;;;6116719;29;20320;-67
2022/10/17 10:41:58;;;;;;;2.80;1.40;;;12.60;99.90;;;;;;6117185;29;20268;-67
2022/10/17 10:45:17;;;;;;;2.67;1.20;;;12.60;99.90;;;;;;6116598;29;20614;-67
2022/10/17 10:48:51;;;;;;;3.40;1.30;;;12.60;99.90;;;;;;6116446;29;20316;-67
2022/10/17 10:51:56;;;;;;;5.75;1.40;;;12.70;99.90;;;;;;6116713;29;20291;-67
2022/10/17 10:55:16;;;;;;;4.03;1.17;;;12.70;99.90;;;;;;6116233;29;20296;-67
2022/10/17 10:58:39;;;;;;;0.93;0.90;;;12.80;99.90;;;;;;6116205;29;20316;-66
2022/10/17 11:01:51;;;;;;;2.47;1.35;;;12.80;99.90;;;;;;6116590;29;20279;-67
2022/10/17 11:05:01;;;;;;;7.28;1.38;;;12.80;99.90;;;;;;6116262;29;20292;-67
2022/10/17 11:08:17;;;;;;;3.38;1.40;;;12.80;99.90;;;;;;6112216;29;20582;-67
2022/10/17 11:11:29;;;;;;;5.65;1.58;;;12.80;99.90;;;;;;6105446;29;20288;-67
2022/10/17 11:14:42;;;;;;;1.15;0.98;;;12.80;99.90;;;;;;6097346;29;20304;-66
2022/10/17 11:17:56;;;;;;;2.25;1.00;;;12.80;99.90;;;;;;6097349;29;20292;-67
2022/10/17 11:21:07;;;;;;;2.42;1.20;;;12.90;99.90;;;;;;6097597;29;20277;-67
2022/10/17 11:24:20;;;;;;;9.88;1.52;;;12.90;99.90;;;;;;6096660;29;20316;-67
2022/10/17 11:27:27;;;;;;;5.45;1.20;;;12.90;99.90;;;;;;6096582;29;20269;-68
2022/10/17 11:30:44;;;;;;;3.65;1.15;;;12.90;99.90;;;;;;6096873;29;20292;-67
2022/10/17 11:33:56;;;;;;;4.10;1.08;;;13.00;99.90;;;;;;6096576;29;20297;-67
2022/10/17 11:37:05;;;;;;;1.40;0.93;;;13.00;99.90;;;;;;6097290;29;20465;-67
2022/10/17 11:40:17;;;;;;;2.65;1.02;;;13.10;99.90;;;;;;6096955;29;20305;-67
2022/10/17 11:43:31;;;;;;;5.13;1.23;;;13.10;99.90;;;;;;6096549;29;20329;-67
2022/10/17 11:46:37;;;;;;;1.00;0.90;;;13.20;99.90;;;;;;6096923;29;20278;-68
2022/10/17 11:49:47;;;;;;;1.00;1.00;;;13.20;99.90;;;;;;6096169;29;20296;-68
2022/10/17 11:53:00;;;;;;;6.82;1.20;;;13.20;99.90;;;;;;6096234;29;20471;-68
2022/10/17 11:56:06;;;;;;;2.83;1.27;;;13.20;99.90;;;;;;6097002;29;20459;-68
2022/10/17 12:00:01;;;;;;;5.30;1.65;;;13.30;99.90;;;;;;6096459;29;20616;-68
2022/10/17 12:03:30;;;;;;;3.15;1.92;;;13.30;99.90;;;;;;6085067;29;20319;-68
2022/10/17 12:06:53;;;;;;;3.05;1.30;;;13.30;99.90;;;;;;6097028;29;20300;-67
2022/10/17 12:10:02;;;;;;;1.90;1.20;;;13.30;99.90;;;;;;6100294;29;20295;-68
2022/10/17 12:13:53;;;;;;;4.72;1.52;;;13.30;99.90;;;;;;6119114;29;20489;-67
2022/10/17 12:16:58;;;;;;;3.47;0.90;;;13.40;99.90;;;;;;6024821;29;20274;-67
2022/10/17 12:20:36;;;;;;;7.03;1.60;;;13.40;99.90;;;;;;6023772;29;20630;-67
2022/10/17 12:23:52;;;;;;;2.22;1.05;;;13.40;99.90;;;;;;6001566;29;20308;-67
2022/10/17 12:26:57;;;;;;;3.95;1.38;;;13.40;99.90;;;;;;6024531;29;20278;-67
2022/10/17 12:30:05;;;;;;;3.70;1.30;;;13.50;99.90;;;;;;6023797;29;20480;-67
2022/10/17 12:33:21;;;;;;;4.38;1.38;;;13.60;99.90;;;;;;6023824;29;20505;-68
2022/10/17 12:36:47;;;;;;;3.63;1.70;;;13.60;99.90;;;;;;6024294;29;20475;-67
2022/10/17 12:39:53;;;;;;;3.50;1.48;;;13.60;99.90;;;;;;6017129;29;20307;-67
2022/10/17 12:42:58;;;;;;;3.63;1.40;;;13.60;99.90;;;;;;6023586;29;20298;-67
2022/10/17 12:46:04;;;;;;;4.60;1.50;;;13.70;99.90;;;;;;6025822;29;20558;-67
2022/10/17 12:49:47;;;;;;;3.80;1.58;;;13.70;99.90;;;;;;6114522;29;20300;-67
2022/10/17 12:53:03;;;;;;;3.53;1.20;;;13.70;99.90;;;;;;6118564;29;20604;-67
2022/10/17 12:56:10;;;;;;;4.30;1.45;;;13.70;99.90;;;;;;6118534;29;20272;-68
2022/10/17 12:59:18;;;;;;;5.85;1.73;;;13.70;99.90;;;;;;6118720;29;20303;-69
2022/10/17 13:02:27;;;;;;;3.67;1.73;;;13.70;99.90;;;;;;6118470;29;20275;-67
2022/10/17 13:05:35;;;;;;;9.43;1.77;;;13.70;99.90;;;;;;6122886;29;20304;-67
2022/10/17 13:08:45;;;;;;;5.55;2.10;;;13.70;99.90;;;;;;6141868;29;20378;-68
2022/10/17 13:11:58;;;;;;;6.03;1.70;;;13.60;99.90;;;;;;6122533;29;20288;-67
2022/10/17 13:15:07;;;;;;;5.82;1.38;;;13.60;99.90;;;;;;6117355;29;20299;-67
2022/10/17 13:18:20;;;;;;;4.82;1.50;;;13.60;99.90;;;;;;6117508;29;20296;-67
2022/10/17 13:21:26;;;;;;;5.07;1.70;;;13.60;99.90;;;;;;6117928;29;20276;-68
2022/10/17 13:24:34;;;;;;;5.25;1.65;;;13.60;99.90;;;;;;6117788;29;20300;-67
2022/10/17 13:27:40;;;;;;;8.07;2.30;;;13.60;99.90;;;;;;6117857;29;20367;-67
2022/10/17 13:30:47;;;;;;;6.90;1.60;;;13.60;99.90;;;;;;6117794;29;20575;-67
2022/10/17 13:33:57;;;;;;;9.20;2.20;;;13.50;99.90;;;;;;6117617;29;20456;-67
2022/10/17 13:37:04;;;;;;;9.63;1.95;;;13.40;99.90;;;;;;6117685;29;20323;-68
2022/10/17 13:40:17;;;;;;;7.00;1.90;;;13.40;99.90;;;;;;6117130;29;20295;-67
2022/10/17 13:43:43;;;;;;;5.72;1.80;;;13.40;99.90;;;;;;6117341;29;20299;-67
2022/10/17 13:46:49;;;;;;;8.20;1.90;;;13.30;99.90;;;;;;6117978;29;20292;-67
2022/10/17 13:49:54;;;;;;;6.35;1.70;;;13.30;99.90;;;;;;6117411;29;20315;-67
2022/10/17 13:53:18;;;;;;;5.45;1.77;;;13.20;99.90;;;;;;6116932;29;20300;-67
2022/10/17 13:56:25;;;;;;;3.70;1.70;;;13.30;99.90;;;;;;6117661;29;20272;-68
2022/10/17 13:59:38;;;;;;;4.90;1.70;;;13.30;99.90;;;;;;6116947;29;20303;-68
2022/10/17 14:02:43;;;;;;;8.93;1.98;;;13.30;99.90;;;;;;6109282;29;20474;-68
2022/10/17 14:06:15;;;;;;;4.45;1.90;;;13.30;99.90;;;;;;6117199;29;20596;-68
2022/10/17 14:09:24;;;;;;;7.00;1.67;;;13.20;99.90;;;;;;6117037;29;20587;-66
2022/10/17 14:12:29;;;;;;;18.92;2.35;;;13.20;99.90;;;;;;6093079;29;20298;-68
2022/10/17 14:15:37;;;;;;;11.82;1.67;;;13.20;99.90;;;;;;6094173;29;20272;-68
2022/10/17 14:18:43;;;;;;;11.45;1.80;;;13.20;99.90;;;;;;6092249;29;20584;-68
2022/10/17 14:21:49;;;;;;;14.48;2.53;;;13.10;99.90;;;;;;6094018;29;20272;-68
2022/10/17 14:24:55;;;;;;;6.18;2.40;;;13.10;99.90;;;;;;6093327;29;20308;-68
2022/10/17 14:28:14;;;;;;;13.80;4.43;;;13.10;99.90;;;;;;6092733;29;20304;-67
2022/10/17 14:31:29;;;;;;;5.20;1.83;;;13.10;99.90;;;;;;6093648;29;20269;-66
2022/10/17 14:34:37;;;;;;;8.55;2.10;;;13.00;99.90;;;;;;6092742;29;20297;-67
2022/10/17 14:37:44;;;;;;;9.55;2.10;;;13.00;99.90;;;;;;6093045;29;20299;-67
2022/10/17 14:40:51;;;;;;;6.82;1.90;;;13.00;99.90;;;;;;6093575;29;20450;-67
2022/10/17 14:43:58;;;;;;;12.23;2.00;;;12.90;99.90;;;;;;6092948;29;20304;-67
2022/10/17 14:47:06;;;;;;;9.68;2.15;;;12.90;99.90;;;;;;6093601;29;20295;-67
2022/10/17 14:50:34;;;;;;;8.68;2.35;;;12.90;99.90;;;;;;6091785;29;20463;-67
2022/10/17 14:53:41;;;;;;;8.40;2.55;;;12.90;99.90;;;;;;6092577;29;20312;-68
2022/10/17 14:56:51;;;;;;;8.00;1.70;;;12.90;99.90;;;;;;6093365;29;20272;-68
2022/10/17 14:59:57;;;;;;;9.13;1.95;;;12.90;99.90;;;;;;6092454;29;20301;-67
2022/10/17 15:03:03;;;;;;;4.68;1.50;;;12.90;99.90;;;;;;6092428;29;20312;-67
2022/10/17 15:06:18;;;;;;;9.45;1.88;;;12.90;99.90;;;;;;6093554;29;20308;-69
2022/10/17 15:09:27;;;;;;;7.05;1.75;;;12.90;99.90;;;;;;6092675;29;20301;-66
2022/10/17 15:12:32;;;;;;;8.43;2.40;;;12.90;99.90;;;;;;6115856;29;20296;-66
2022/10/17 15:15:38;;;;;;;7.47;1.90;;;12.90;99.90;;;;;;6116399;29;20272;-66
2022/10/17 15:18:44;;;;;;;8.18;2.40;;;12.90;99.90;;;;;;6115613;29;20296;-67
2022/10/17 15:21:49;;;;;;;6.80;2.30;;;12.80;99.90;;;;;;6116313;29;20271;-67
2022/10/17 15:24:54;;;;;;;9.10;2.67;;;12.70;99.90;;;;;;6115654;29;20477;-67
2022/10/17 15:27:59;;;;;;;5.80;2.95;;;12.70;99.90;;;;;;6115481;29;20583;-67
2022/10/17 15:31:04;;;;;;;12.35;2.33;;;12.70;99.90;;;;;;6115648;29;20272;-67
2022/10/17 15:34:12;;;;;;;4.82;2.75;;;12.70;99.90;;;;;;6115228;29;20303;-67
2022/10/17 15:37:21;;;;;;;9.80;2.25;;;12.70;99.90;;;;;;6115867;29;20272;-67
2022/10/17 15:40:30;;;;;;;8.07;2.33;;;12.70;99.90;;;;;;6114819;29;20276;-66
2022/10/17 15:43:34;;;;;;;9.70;2.08;;;12.70;99.90;;;;;;6115432;29;20626;-67
2022/10/17 15:46:40;;;;;;;5.93;2.05;;;12.70;99.90;;;;;;6116250;29;20436;-67
2022/10/17 15:49:46;;;;;;;8.73;2.50;;;12.70;99.90;;;;;;6114567;29;20319;-67
2022/10/17 15:52:51;;;;;;;8.60;2.35;;;12.60;99.90;;;;;;6114779;29;20308;-67
2022/10/17 15:55:56;;;;;;;7.85;2.30;;;12.60;99.90;;;;;;6119176;29;20276;-67
2022/10/17 15:59:03;;;;;;;8.60;2.60;;;12.60;99.90;;;;;;6119362;29;20587;-67
2022/10/17 16:02:13;;;;;;;5.15;2.20;;;12.50;99.90;;;;;;6120600;29;20272;-67
2022/10/17 16:05:22;;;;;;;13.90;4.07;;;12.50;99.90;;;;;;6119486;29;20299;-67
2022/10/17 16:08:27;;;;;;;8.15;3.50;;;12.50;99.90;;;;;;6119751;29;20299;-67
2022/10/17 16:11:38;;;;;;;12.10;3.65;;;12.40;99.90;;;;;;6137032;29;20308;-67
2022/10/17 16:14:43;;;;;;;19.40;3.50;;;12.30;99.90;;;;;;6142726;29;20299;-66
2022/10/17 16:17:47;;;;;;;13.13;3.05;;;12.40;99.90;;;;;;6142705;29;20303;-66
2022/10/17 16:20:54;;;;;;;11.75;3.30;;;12.40;99.90;;;;;;6143600;29;20457;-68
2022/10/17 16:23:59;;;;;;;9.35;2.92;;;12.40;99.90;;;;;;6131952;29;20300;-68
2022/10/17 16:27:04;;;;;;;8.50;3.30;;;12.40;99.90;;;;;;6095818;29;20278;-68
2022/10/17 16:30:11;;;;;;;9.43;3.08;;;12.40;99.90;;;;;;6095498;29;20304;-68